Time;durP1;ratioP1;P1;durP2;ratioP2;P2;SDS_P1;SDS_P2;PMS_P1;PMS_P2;Temp;Humidity;BMP_temperature;BMP_pressure;BME280_temperature;BME280_humidity;BME280_pressure;Samples;Min_cycle;Max_cycle;Signal;HPM_P1;HPM_P2
2022/01/03 00:01:51;;;;;;;0.70;0.70;;;13.10;99.90;;;;;;5262348;28;20087;-79
2022/01/03 00:04:22;;;;;;;0.80;0.80;;;13.10;99.90;;;;;;5245207;28;20039;-78
2022/01/03 00:06:59;;;;;;;1.08;1.05;;;13.10;99.90;;;;;;5242768;28;20684;-77
2022/01/03 00:09:34;;;;;;;2.20;2.10;;;13.10;99.90;;;;;;5244204;28;20370;-77
2022/01/03 00:12:05;;;;;;;0.65;0.65;;;13.20;99.90;;;;;;5256188;28;20032;-77
2022/01/03 00:14:38;;;;;;;1.20;1.20;;;13.30;99.90;;;;;;5243884;28;20153;-76
2022/01/03 00:17:12;;;;;;;0.82;0.82;;;13.20;99.90;;;;;;5260728;28;20035;-78
2022/01/03 00:19:43;;;;;;;1.67;1.52;;;13.10;99.90;;;;;;5253392;28;20031;-78
2022/01/03 00:22:21;;;;;;;0.77;0.77;;;13.00;99.90;;;;;;5253096;28;20048;-76
2022/01/03 00:25:05;;;;;;;0.90;0.90;;;12.80;99.90;;;;;;5237226;28;20071;-76
2022/01/03 00:28:14;;;;;;;1.10;1.10;;;12.70;99.90;;;;;;5262880;28;20386;-76
2022/01/03 00:30:49;;;;;;;1.17;1.17;;;12.40;99.90;;;;;;5253645;28;20059;-77
2022/01/03 00:33:22;;;;;;;1.00;1.00;;;12.20;99.90;;;;;;5255852;28;20036;-77
2022/01/03 00:36:06;;;;;;;1.10;1.10;;;12.20;99.90;;;;;;5259724;28;20105;-78
2022/01/03 00:38:37;;;;;;;0.80;0.80;;;12.00;99.90;;;;;;5268891;28;20030;-77
2022/01/03 00:41:07;;;;;;;0.98;0.98;;;11.80;99.90;;;;;;5260979;28;20370;-77
2022/01/03 00:43:44;;;;;;;0.75;0.75;;;11.70;99.90;;;;;;5246755;28;20024;-77
2022/01/03 00:46:21;;;;;;;4.85;2.50;;;11.50;99.90;;;;;;5246651;28;20031;-77
2022/01/03 00:48:55;;;;;;;0.80;0.80;;;11.40;99.90;;;;;;5258701;28;20108;-77
2022/01/03 00:51:29;;;;;;;;;;;11.40;99.90;;;;;;5257545;28;20036;-76
2022/01/03 00:54:01;;;;;;;0.90;0.90;;;11.70;99.90;;;;;;5246055;28;20358;-78
2022/01/03 00:56:47;;;;;;;0.80;0.80;;;11.90;99.90;;;;;;5251751;28;20027;-77
2022/01/03 00:59:42;;;;;;;0.82;0.82;;;11.70;99.90;;;;;;5243369;28;20103;-78
2022/01/03 01:02:14;;;;;;;0.80;0.80;;;11.70;99.90;;;;;;5258588;28;20059;-76
2022/01/03 01:04:48;;;;;;;0.90;0.90;;;11.70;99.90;;;;;;5234481;28;20056;-76
2022/01/03 01:07:23;;;;;;;1.25;1.25;;;11.50;99.90;;;;;;5254770;28;20032;-78
2022/01/03 01:09:56;;;;;;;1.02;1.02;;;11.90;99.90;;;;;;5242582;28;20032;-77
2022/01/03 01:12:30;;;;;;;0.80;0.80;;;12.00;99.90;;;;;;5231528;28;20047;-76
2022/01/03 01:15:03;;;;;;;1.10;1.10;;;12.30;99.90;;;;;;5217340;28;20399;-78
2022/01/03 01:17:38;;;;;;;0.70;0.70;;;12.50;99.90;;;;;;5204465;28;20029;-76
2022/01/03 01:20:16;;;;;;;1.13;1.13;;;12.50;99.90;;;;;;5220465;28;20032;-79
2022/01/03 01:22:52;;;;;;;1.05;1.05;;;12.40;99.90;;;;;;5221347;28;20047;-78
2022/01/03 01:28:20;;;;;;;1.00;1.00;;;12.70;99.90;;;;;;5193409;28;20072;-77
2022/01/03 01:31:00;;;;;;;1.80;1.55;;;12.70;99.90;;;;;;5179537;28;20052;-75
2022/01/03 01:33:36;;;;;;;2.38;1.38;;;12.90;99.90;;;;;;5208297;28;20262;-77
2022/01/03 01:36:16;;;;;;;0.90;0.90;;;12.90;99.90;;;;;;5220146;28;20041;-76
2022/01/03 01:38:53;;;;;;;1.10;1.10;;;12.90;99.90;;;;;;5237538;28;20044;-76
2022/01/03 01:41:28;;;;;;;0.80;0.80;;;12.90;99.90;;;;;;5200541;28;20621;-78
2022/01/03 01:44:02;;;;;;;0.90;0.90;;;12.70;99.90;;;;;;5236833;28;20032;-76
2022/01/03 01:46:43;;;;;;;;;;;12.60;99.90;;;;;;5211034;28;20083;-76
2022/01/03 01:49:18;;;;;;;0.80;0.80;;;12.60;99.90;;;;;;5237040;28;20234;-76
2022/01/03 01:52:06;;;;;;;0.93;0.93;;;12.80;99.90;;;;;;5236545;28;20033;-76
2022/01/03 01:54:40;;;;;;;1.00;1.00;;;12.90;99.90;;;;;;5220364;28;20036;-78
2022/01/03 01:57:18;;;;;;;1.00;1.00;;;13.20;99.90;;;;;;5224760;28;20048;-78
2022/01/03 02:00:07;;;;;;;0.70;0.70;;;13.30;99.90;;;;;;5248555;28;20060;-78
2022/01/03 02:03:06;;;;;;;0.90;0.90;;;13.30;99.90;;;;;;5254132;28;20036;-76
2022/01/03 02:06:00;;;;;;;0.88;0.88;;;13.40;99.90;;;;;;5256242;28;20474;-77
2022/01/03 02:09:16;;;;;;;1.35;1.35;;;13.30;99.90;;;;;;5254803;28;20044;-76
2022/01/03 02:11:59;;;;;;;1.55;1.45;;;13.20;99.90;;;;;;5246758;28;20052;-76
2022/01/03 02:14:36;;;;;;;0.88;0.88;;;13.10;99.90;;;;;;5242959;28;20128;-77
2022/01/03 02:17:12;;;;;;;0.90;0.90;;;13.20;99.90;;;;;;5258223;28;20347;-78
2022/01/03 02:20:12;;;;;;;0.98;0.98;;;13.10;99.90;;;;;;5251006;28;20052;-80
2022/01/03 02:22:51;;;;;;;1.83;1.73;;;13.10;99.90;;;;;;5251497;28;20042;-76
2022/01/03 02:25:24;;;;;;;0.90;0.90;;;13.10;99.90;;;;;;5257426;28;20023;-78
2022/01/03 02:28:01;;;;;;;0.65;0.65;;;13.20;99.90;;;;;;5247670;28;20036;-77
2022/01/03 02:30:39;;;;;;;1.38;1.27;;;13.20;99.90;;;;;;5238735;28;20095;-77
2022/01/03 02:33:10;;;;;;;0.90;0.90;;;13.10;99.90;;;;;;5253957;28;20055;-76
2022/01/03 02:35:43;;;;;;;0.80;0.80;;;13.00;99.90;;;;;;5245585;28;20081;-78
2022/01/03 02:38:17;;;;;;;0.95;0.95;;;13.00;99.90;;;;;;5236639;28;20097;-76
2022/01/03 02:40:48;;;;;;;0.88;0.88;;;13.00;99.90;;;;;;5247143;28;20028;-76
2022/01/03 02:43:21;;;;;;;0.75;0.75;;;13.00;99.90;;;;;;5247710;28;20051;-76
2022/01/03 02:45:56;;;;;;;0.80;0.80;;;12.90;99.90;;;;;;5241992;28;20039;-76
2022/01/03 02:48:28;;;;;;;0.90;0.90;;;13.00;99.90;;;;;;5237651;28;20024;-77
2022/01/03 02:51:06;;;;;;;0.80;0.80;;;13.00;99.90;;;;;;5239041;28;20055;-76
2022/01/03 02:53:38;;;;;;;0.90;0.90;;;12.90;99.90;;;;;;5251999;28;20040;-77
2022/01/03 02:56:16;;;;;;;0.80;0.80;;;12.90;99.90;;;;;;5254392;28;20032;-79
2022/01/03 02:58:48;;;;;;;0.70;0.70;;;12.90;99.90;;;;;;5223808;28;20479;-78
2022/01/03 03:01:19;;;;;;;0.80;0.80;;;12.80;99.90;;;;;;5248701;28;20032;-75
2022/01/03 03:03:53;;;;;;;1.08;1.08;;;12.80;99.90;;;;;;5244206;28;20028;-79
2022/01/03 03:06:32;;;;;;;1.00;1.00;;;12.90;99.90;;;;;;5240435;28;20132;-77
2022/01/03 03:09:05;;;;;;;0.80;0.80;;;12.90;99.90;;;;;;5242911;28;20040;-79
2022/01/03 03:11:39;;;;;;;0.90;0.90;;;13.10;99.90;;;;;;5258898;28;20040;-77
2022/01/03 03:14:15;;;;;;;0.77;0.77;;;13.10;99.90;;;;;;5243403;28;20105;-76
2022/01/03 03:16:46;;;;;;;0.88;0.88;;;13.10;99.90;;;;;;5243635;28;20044;-77
2022/01/03 03:19:19;;;;;;;0.70;0.70;;;13.10;99.90;;;;;;5259385;28;20035;-76
2022/01/03 03:21:51;;;;;;;0.80;0.80;;;13.10;99.90;;;;;;5247531;28;20043;-76
2022/01/03 03:24:22;;;;;;;2.00;1.90;;;13.00;99.90;;;;;;5256957;28;20027;-77
2022/01/03 03:26:55;;;;;;;0.77;0.77;;;13.00;99.90;;;;;;5252278;28;20278;-79
2022/01/03 03:29:26;;;;;;;1.17;1.17;;;13.00;99.90;;;;;;5261049;28;20044;-76
2022/01/03 03:31:59;;;;;;;1.10;1.10;;;12.90;99.90;;;;;;5259100;28;20484;-77
2022/01/03 03:34:36;;;;;;;0.90;0.90;;;12.90;99.90;;;;;;5254741;28;20039;-77
2022/01/03 03:37:09;;;;;;;0.90;0.90;;;12.80;99.90;;;;;;5245254;28;20107;-77
2022/01/03 03:39:44;;;;;;;0.93;0.93;;;12.60;99.90;;;;;;5250022;28;20099;-78
2022/01/03 03:42:15;;;;;;;0.90;0.90;;;12.80;99.90;;;;;;5262545;28;20039;-77
2022/01/03 03:44:51;;;;;;;0.80;0.80;;;12.80;99.90;;;;;;5253847;28;20273;-78
2022/01/03 03:47:36;;;;;;;0.90;0.90;;;12.80;99.90;;;;;;5319788;27;20374;-76
2022/01/03 03:50:08;;;;;;;0.95;0.95;;;12.80;99.90;;;;;;5297708;28;20099;-76
2022/01/03 03:52:43;;;;;;;0.95;0.95;;;12.80;99.90;;;;;;5292734;27;20053;-76
2022/01/03 03:55:16;;;;;;;0.90;0.90;;;12.90;99.90;;;;;;5277179;28;20243;-76
2022/01/03 03:57:53;;;;;;;2.58;1.75;;;12.80;99.90;;;;;;5278789;28;20043;-76
2022/01/03 04:00:30;;;;;;;0.63;0.63;;;12.70;99.90;;;;;;5281337;28;20070;-76
2022/01/03 04:03:06;;;;;;;0.73;0.73;;;12.70;99.90;;;;;;5297060;28;20043;-75
2022/01/03 04:05:38;;;;;;;1.02;1.02;;;12.80;99.90;;;;;;5262389;27;20083;-75
2022/01/03 04:08:10;;;;;;;0.73;0.73;;;12.80;99.90;;;;;;5236974;28;20037;-77
2022/01/03 04:10:41;;;;;;;0.90;0.90;;;12.70;99.90;;;;;;5232930;28;20510;-76
2022/01/03 04:13:12;;;;;;;1.00;1.00;;;12.60;99.90;;;;;;5234380;28;20078;-75
2022/01/03 04:15:45;;;;;;;0.60;0.60;;;12.70;99.90;;;;;;5234570;28;20024;-76
2022/01/03 04:18:16;;;;;;;1.00;1.00;;;12.60;99.90;;;;;;5235205;28;20083;-76
2022/01/03 04:20:50;;;;;;;1.20;1.20;;;12.70;99.90;;;;;;5231068;28;20052;-77
2022/01/03 04:23:21;;;;;;;0.63;0.63;;;12.70;99.90;;;;;;5227018;28;20028;-75
2022/01/03 04:25:55;;;;;;;0.80;0.80;;;12.70;99.90;;;;;;5233489;28;20087;-76
2022/01/03 04:28:31;;;;;;;0.93;0.93;;;12.50;99.90;;;;;;5233132;28;20056;-76
2022/01/03 04:31:03;;;;;;;0.90;0.90;;;12.50;99.90;;;;;;5248905;28;20032;-77
2022/01/03 04:33:35;;;;;;;0.90;0.90;;;12.40;99.90;;;;;;5213194;28;20036;-76
2022/01/03 04:36:12;;;;;;;1.00;1.00;;;12.60;99.90;;;;;;5231210;28;20044;-77
2022/01/03 04:38:42;;;;;;;0.75;0.75;;;12.60;99.90;;;;;;5217486;28;20025;-76
2022/01/03 04:41:16;;;;;;;0.82;0.82;;;12.60;99.90;;;;;;5234033;28;20255;-76
2022/01/03 04:43:50;;;;;;;0.70;0.70;;;12.70;99.90;;;;;;5233151;28;20330;-76
2022/01/03 04:46:21;;;;;;;0.60;0.60;;;12.70;99.90;;;;;;5216571;28;20128;-75
2022/01/03 04:48:57;;;;;;;0.80;0.80;;;12.60;99.90;;;;;;5234621;28;20270;-77
2022/01/03 04:51:33;;;;;;;0.75;0.75;;;12.70;99.90;;;;;;5230505;28;20032;-75
2022/01/03 04:54:05;;;;;;;0.75;0.75;;;13.00;99.90;;;;;;5221836;28;20043;-77
2022/01/03 04:56:39;;;;;;;0.70;0.70;;;13.00;99.90;;;;;;5249761;28;20111;-76
2022/01/03 04:59:10;;;;;;;0.70;0.70;;;13.20;99.90;;;;;;5219568;28;20044;-75
2022/01/03 05:01:40;;;;;;;0.88;0.88;;;13.00;99.90;;;;;;5198685;28;20041;-76
2022/01/03 05:04:11;;;;;;;0.90;0.90;;;13.10;99.90;;;;;;5207224;28;20055;-77
2022/01/03 05:06:44;;;;;;;0.93;0.93;;;13.20;99.90;;;;;;5235563;28;20025;-76
2022/01/03 05:09:17;;;;;;;1.83;1.73;;;13.20;99.90;;;;;;5220045;28;20443;-75
2022/01/03 05:11:48;;;;;;;0.75;0.75;;;13.40;99.90;;;;;;5219929;28;20056;-78
2022/01/03 05:14:19;;;;;;;0.90;0.90;;;13.30;99.90;;;;;;5220123;28;20028;-76
2022/01/03 05:17:05;;;;;;;0.88;0.88;;;13.20;99.90;;;;;;5220215;28;20108;-78
2022/01/03 05:19:36;;;;;;;0.90;0.90;;;13.30;99.90;;;;;;5216181;28;20463;-78
2022/01/03 05:22:18;;;;;;;1.08;1.08;;;13.60;99.90;;;;;;5220274;28;20075;-77
2022/01/03 05:24:49;;;;;;;0.75;0.75;;;13.40;99.90;;;;;;5220892;28;20472;-78
2022/01/03 05:27:20;;;;;;;2.25;1.10;;;13.40;99.90;;;;;;5222189;28;20032;-75
2022/01/03 05:29:51;;;;;;;2.42;1.27;;;13.40;99.90;;;;;;5218873;28;20045;-76
2022/01/03 05:32:27;;;;;;;0.95;0.95;;;13.30;99.90;;;;;;5202859;28;20051;-76
2022/01/03 05:35:01;;;;;;;1.23;1.23;;;13.30;99.90;;;;;;5202713;28;20544;-74
2022/01/03 05:37:35;;;;;;;0.75;0.75;;;13.50;99.90;;;;;;5214949;28;20105;-76
2022/01/03 05:40:15;;;;;;;0.80;0.80;;;13.50;99.90;;;;;;5218348;28;20036;-75
2022/01/03 05:42:46;;;;;;;0.85;0.85;;;13.50;99.90;;;;;;5218902;28;20040;-76
2022/01/03 05:45:20;;;;;;;1.00;1.00;;;13.60;99.90;;;;;;5201724;28;20036;-76
2022/01/03 05:47:52;;;;;;;0.90;0.90;;;13.60;99.90;;;;;;5215494;28;20568;-78
2022/01/03 05:50:23;;;;;;;0.80;0.80;;;13.50;99.90;;;;;;5218610;28;20036;-75
2022/01/03 05:53:02;;;;;;;1.10;1.10;;;13.50;99.90;;;;;;5202201;28;20414;-76
2022/01/03 05:55:38;;;;;;;0.73;0.73;;;13.70;99.90;;;;;;5220145;28;20356;-77
2022/01/03 05:58:10;;;;;;;1.88;1.77;;;13.70;99.90;;;;;;5218255;28;20032;-76
2022/01/03 06:00:45;;;;;;;1.65;1.55;;;13.80;99.90;;;;;;5201958;28;20559;-76
2022/01/03 06:03:21;;;;;;;0.80;0.80;;;13.60;99.90;;;;;;5218116;28;20029;-75
2022/01/03 06:08:31;;;;;;;0.95;0.95;;;13.50;99.90;;;;;;5221851;28;20330;-78
2022/01/03 06:11:09;;;;;;;0.98;0.98;;;13.60;99.90;;;;;;5222367;28;20029;-76
2022/01/03 06:13:40;;;;;;;0.82;0.82;;;13.60;99.90;;;;;;5239595;28;20032;-78
2022/01/03 06:16:13;;;;;;;0.80;0.80;;;13.40;99.90;;;;;;5231732;28;20033;-76
2022/01/03 06:18:48;;;;;;;0.80;0.80;;;13.40;99.90;;;;;;5238059;28;20028;-76
2022/01/03 06:21:24;;;;;;;1.25;1.25;;;13.30;99.90;;;;;;5238881;28;20032;-77
2022/01/03 06:24:04;;;;;;;1.00;1.00;;;13.50;99.90;;;;;;5240237;28;20036;-75
2022/01/03 06:26:43;;;;;;;0.80;0.80;;;13.50;99.90;;;;;;5243204;28;20040;-75
2022/01/03 06:29:18;;;;;;;1.08;1.08;;;13.50;99.90;;;;;;5241548;28;20541;-76
2022/01/03 06:31:50;;;;;;;1.50;1.40;;;13.50;99.90;;;;;;5240518;28;20032;-79
2022/01/03 06:34:26;;;;;;;1.25;1.23;;;13.50;99.90;;;;;;5241800;28;20078;-76
2022/01/03 06:37:00;;;;;;;0.80;0.80;;;13.30;99.90;;;;;;5222640;28;20044;-75
2022/01/03 06:39:31;;;;;;;0.90;0.90;;;13.40;99.90;;;;;;5221385;28;20055;-75
2022/01/03 06:42:07;;;;;;;0.70;0.70;;;13.50;99.90;;;;;;5239478;28;20043;-75
2022/01/03 06:44:43;;;;;;;0.88;0.88;;;13.40;99.90;;;;;;5235220;28;20028;-77
2022/01/03 06:47:17;;;;;;;0.70;0.70;;;13.30;99.90;;;;;;5214402;28;20100;-78
2022/01/03 06:49:53;;;;;;;1.00;1.00;;;13.30;99.90;;;;;;5220076;28;20051;-76
2022/01/03 06:52:29;;;;;;;0.80;0.80;;;13.20;99.90;;;;;;5238780;28;20098;-77
2022/01/03 06:55:08;;;;;;;0.80;0.80;;;13.30;99.90;;;;;;5238674;28;20024;-76
2022/01/03 06:57:42;;;;;;;0.80;0.80;;;13.40;99.90;;;;;;5221260;28;20024;-77
2022/01/03 07:00:18;;;;;;;0.80;0.80;;;13.30;99.90;;;;;;5238794;28;20100;-76
2022/01/03 07:02:51;;;;;;;0.70;0.70;;;13.30;99.90;;;;;;5221356;28;20063;-77
2022/01/03 07:05:23;;;;;;;0.70;0.70;;;13.20;99.90;;;;;;5221256;28;20057;-75
2022/01/03 07:07:57;;;;;;;0.70;0.70;;;13.30;99.90;;;;;;5196961;28;20032;-75
2022/01/03 07:10:33;;;;;;;0.90;0.90;;;13.30;99.90;;;;;;5200112;28;20029;-76
2022/01/03 07:13:04;;;;;;;0.70;0.70;;;13.20;99.90;;;;;;5207694;28;20025;-79
2022/01/03 07:21:23;;;;;;;0.90;0.90;;;13.00;99.90;;;;;;5216783;28;20563;-78
2022/01/03 07:23:57;;;;;;;0.80;0.80;;;12.90;99.90;;;;;;5218261;28;20045;-77
2022/01/03 07:26:31;;;;;;;;;;;12.80;99.90;;;;;;5200551;28;20100;-77
2022/01/03 07:29:05;;;;;;;0.60;0.60;;;12.90;99.90;;;;;;5215913;28;20262;-76
2022/01/03 07:31:38;;;;;;;0.95;0.95;;;12.90;99.90;;;;;;5200581;28;20132;-75
2022/01/03 07:34:09;;;;;;;0.68;0.68;;;12.90;99.90;;;;;;5217048;28;20066;-77
2022/01/03 07:36:42;;;;;;;0.75;0.75;;;12.60;99.90;;;;;;5208396;28;20029;-76
2022/01/03 07:39:18;;;;;;;0.90;0.90;;;12.60;99.90;;;;;;5216688;28;20029;-76
2022/01/03 07:41:57;;;;;;;0.80;0.80;;;12.50;99.90;;;;;;5206296;28;20037;-75
2022/01/03 07:44:28;;;;;;;0.70;0.70;;;12.40;99.90;;;;;;5214416;28;20040;-75
2022/01/03 07:46:59;;;;;;;0.90;0.90;;;12.30;99.90;;;;;;5214965;28;20044;-75
2022/01/03 07:49:29;;;;;;;0.70;0.70;;;12.30;99.90;;;;;;5198149;28;20079;-76
2022/01/03 07:52:03;;;;;;;1.00;1.00;;;12.20;99.90;;;;;;5179511;28;20135;-77
2022/01/03 07:54:36;;;;;;;0.90;0.90;;;12.10;99.90;;;;;;5189034;28;20482;-75
2022/01/03 07:57:09;;;;;;;0.90;0.90;;;12.10;99.90;;;;;;5196348;28;20041;-76
2022/01/03 07:59:47;;;;;;;0.75;0.75;;;12.10;99.90;;;;;;5197216;28;20041;-76
2022/01/03 08:02:18;;;;;;;1.60;1.60;;;12.00;99.90;;;;;;5200608;28;20215;-76
2022/01/03 08:04:49;;;;;;;0.95;0.95;;;12.10;99.90;;;;;;5210962;28;20056;-77
2022/01/03 08:07:25;;;;;;;0.70;0.70;;;12.00;99.90;;;;;;5220429;28;20124;-78
2022/01/03 08:09:56;;;;;;;0.90;0.90;;;12.00;99.90;;;;;;5202211;28;20047;-72
2022/01/03 08:12:27;;;;;;;0.85;0.85;;;12.10;99.90;;;;;;5217299;28;20033;-76
2022/01/03 08:15:01;;;;;;;0.77;0.77;;;12.10;99.90;;;;;;5231106;28;20048;-78
2022/01/03 08:17:32;;;;;;;0.70;0.70;;;11.90;99.90;;;;;;5217088;28;20491;-75
2022/01/03 08:20:07;;;;;;;0.80;0.80;;;11.90;99.90;;;;;;5235699;28;20523;-75
2022/01/03 08:22:40;;;;;;;0.60;0.60;;;11.90;99.90;;;;;;5233395;28;20070;-76
2022/01/03 08:25:11;;;;;;;0.80;0.80;;;11.90;99.90;;;;;;5226278;28;20055;-74
2022/01/03 08:27:44;;;;;;;0.80;0.80;;;11.90;99.90;;;;;;5220269;28;20226;-77
2022/01/03 08:30:16;;;;;;;0.90;0.90;;;11.90;99.90;;;;;;5239750;28;20055;-77
2022/01/03 08:32:47;;;;;;;0.75;0.75;;;11.90;99.90;;;;;;5240557;28;20098;-76
2022/01/03 08:35:19;;;;;;;0.82;0.82;;;11.90;99.90;;;;;;5243593;28;20025;-75
2022/01/03 08:37:56;;;;;;;0.80;0.80;;;11.90;99.90;;;;;;5242561;28;20044;-76
2022/01/03 08:40:31;;;;;;;0.80;0.80;;;12.00;99.90;;;;;;5235233;28;20044;-75
2022/01/03 08:43:02;;;;;;;1.05;1.05;;;12.00;99.90;;;;;;5237426;28;20354;-77
2022/01/03 08:45:35;;;;;;;1.10;1.08;;;12.10;99.90;;;;;;5238235;28;20129;-77
2022/01/03 08:48:06;;;;;;;0.80;0.80;;;12.20;99.90;;;;;;5239098;28;20442;-74
2022/01/03 08:50:37;;;;;;;1.00;1.00;;;12.20;99.90;;;;;;5241919;28;20095;-77
2022/01/03 08:53:13;;;;;;;0.80;0.80;;;12.20;99.90;;;;;;5240977;28;20396;-75
2022/01/03 08:55:46;;;;;;;1.63;1.60;;;12.30;99.90;;;;;;5236582;28;20035;-74
2022/01/03 08:58:18;;;;;;;0.90;0.90;;;12.30;99.90;;;;;;5242956;28;20072;-75
2022/01/03 09:00:52;;;;;;;1.00;1.00;;;12.40;99.90;;;;;;5238129;28;20044;-76
2022/01/03 09:03:23;;;;;;;0.95;0.95;;;12.40;99.90;;;;;;5240875;28;20280;-77
2022/01/03 09:06:06;;;;;;;0.90;0.90;;;12.40;99.90;;;;;;5214689;28;20093;-76
2022/01/03 09:08:45;;;;;;;0.90;0.90;;;12.40;99.90;;;;;;5222513;28;20524;-75
2022/01/03 09:11:16;;;;;;;0.82;0.82;;;12.40;99.90;;;;;;5243197;28;20113;-75
2022/01/03 09:13:50;;;;;;;0.93;0.93;;;12.50;99.90;;;;;;5245556;28;20418;-76
2022/01/03 09:16:23;;;;;;;1.35;1.35;;;12.60;99.90;;;;;;5223775;28;20372;-74
2022/01/03 09:18:57;;;;;;;0.77;0.77;;;12.60;99.90;;;;;;5244068;28;20032;-77
2022/01/03 09:21:32;;;;;;;0.90;0.90;;;12.70;99.90;;;;;;5245323;28;20056;-75
2022/01/03 09:29:42;;;;;;;0.90;0.90;;;12.60;99.90;;;;;;5256423;28;20025;-75
2022/01/03 09:32:13;;;;;;;0.80;0.80;;;12.50;99.90;;;;;;5242075;28;20390;-75
2022/01/03 09:34:46;;;;;;;0.90;0.90;;;12.50;99.90;;;;;;5240465;28;20042;-76
2022/01/03 09:37:22;;;;;;;0.83;0.83;;;12.50;99.90;;;;;;5240220;28;20030;-76
2022/01/03 09:39:58;;;;;;;0.82;0.82;;;12.50;99.90;;;;;;5219479;28;20032;-75
2022/01/03 09:42:34;;;;;;;0.82;0.82;;;12.50;99.90;;;;;;5241946;28;20241;-78
2022/01/03 09:45:11;;;;;;;0.90;0.90;;;12.60;99.90;;;;;;5241690;28;20043;-75
2022/01/03 09:47:50;;;;;;;0.80;0.80;;;12.70;99.90;;;;;;5225311;28;20048;-74
2022/01/03 09:50:28;;;;;;;0.82;0.82;;;12.80;99.90;;;;;;5242325;28;20387;-75
2022/01/03 09:53:03;;;;;;;0.90;0.90;;;12.90;99.90;;;;;;5234500;28;20032;-75
2022/01/03 09:55:34;;;;;;;0.80;0.80;;;12.90;99.90;;;;;;5224677;28;20039;-75
2022/01/03 09:58:14;;;;;;;0.80;0.80;;;13.00;99.90;;;;;;5223246;28;20057;-74
2022/01/03 10:00:49;;;;;;;0.70;0.70;;;13.10;99.90;;;;;;5240763;28;20555;-75
2022/01/03 10:03:23;;;;;;;;;;;12.90;99.90;;;;;;5222645;28;20041;-74
2022/01/03 10:05:58;;;;;;;0.90;0.90;;;12.70;99.90;;;;;;5232309;28;19916;-74
2022/01/03 10:08:30;;;;;;;1.45;1.33;;;12.70;99.90;;;;;;5238756;28;20118;-75
2022/01/03 10:11:03;;;;;;;1.10;1.10;;;12.80;99.90;;;;;;5240519;28;20042;-74
2022/01/03 10:13:44;;;;;;;0.80;0.80;;;12.80;99.90;;;;;;5241030;28;20040;-75
2022/01/03 10:16:18;;;;;;;0.80;0.80;;;13.00;99.90;;;;;;5224080;28;20099;-74
2022/01/03 10:18:49;;;;;;;1.43;1.43;;;13.20;99.90;;;;;;5258437;28;20097;-74
2022/01/03 10:21:48;;;;;;;0.80;0.80;;;13.30;99.90;;;;;;5254303;28;20056;-74
2022/01/03 10:24:33;;;;;;;1.02;1.02;;;13.30;99.90;;;;;;5258472;28;20374;-74
2022/01/03 10:27:06;;;;;;;0.80;0.80;;;13.10;99.90;;;;;;5241606;28;20039;-74
2022/01/03 10:29:40;;;;;;;1.00;1.00;;;13.00;99.90;;;;;;5240435;28;20035;-74
2022/01/03 10:32:14;;;;;;;0.93;0.93;;;13.30;99.90;;;;;;5241582;28;20024;-74
2022/01/03 10:34:44;;;;;;;0.93;0.93;;;13.10;99.90;;;;;;5240435;28;20374;-74
2022/01/03 10:37:18;;;;;;;0.77;0.77;;;13.00;99.90;;;;;;5237268;28;20029;-74
2022/01/03 10:39:51;;;;;;;0.90;0.90;;;13.20;99.90;;;;;;5255605;28;20106;-74
2022/01/03 10:42:24;;;;;;;1.20;1.20;;;13.50;99.90;;;;;;5239639;28;20551;-74
2022/01/03 10:45:00;;;;;;;1.10;1.10;;;13.70;99.90;;;;;;5238305;28;20405;-76
2022/01/03 10:47:34;;;;;;;0.77;0.77;;;13.70;99.90;;;;;;5222071;28;20040;-74
2022/01/03 10:50:21;;;;;;;0.90;0.90;;;13.40;99.90;;;;;;5238407;28;20059;-74
2022/01/03 10:52:55;;;;;;;0.90;0.90;;;12.70;99.90;;;;;;5237396;28;20032;-74
2022/01/03 10:55:35;;;;;;;0.90;0.90;;;12.80;99.90;;;;;;5220306;28;20047;-75
2022/01/03 10:58:11;;;;;;;1.00;1.00;;;13.00;99.90;;;;;;5231612;28;20031;-75
2022/01/03 11:00:46;;;;;;;0.80;0.80;;;13.30;99.90;;;;;;5238850;28;20036;-74
2022/01/03 11:03:37;;;;;;;0.80;0.80;;;13.80;99.90;;;;;;5234146;28;20032;-74
2022/01/03 11:06:23;;;;;;;0.95;0.95;;;13.80;99.90;;;;;;5221769;28;20552;-76
2022/01/03 11:11:55;;;;;;;0.75;0.75;;;13.90;99.90;;;;;;5231528;28;20097;-76
2022/01/03 11:14:39;;;;;;;;;;;14.60;99.90;;;;;;5215310;28;20040;-75
2022/01/03 11:17:28;;;;;;;0.70;0.70;;;14.50;99.90;;;;;;5217703;28;20318;-76
2022/01/03 11:20:00;;;;;;;0.77;0.77;;;14.10;99.90;;;;;;5200839;28;20612;-75
2022/01/03 11:22:53;;;;;;;0.70;0.70;;;14.50;99.90;;;;;;5216498;28;20044;-76
2022/01/03 11:25:35;;;;;;;0.85;0.85;;;15.00;99.90;;;;;;5212711;28;20048;-74
2022/01/03 11:28:11;;;;;;;0.77;0.77;;;14.40;99.90;;;;;;5229948;28;20045;-74
2022/01/03 11:30:46;;;;;;;0.68;0.68;;;13.70;99.90;;;;;;5207061;28;20036;-74
2022/01/03 11:33:23;;;;;;;0.93;0.93;;;13.70;99.90;;;;;;5193721;28;20039;-74
2022/01/03 11:36:02;;;;;;;0.90;0.90;;;13.80;99.90;;;;;;5212420;28;20041;-74
2022/01/03 11:38:38;;;;;;;0.68;0.68;;;13.40;99.90;;;;;;5219580;28;20043;-76
2022/01/03 11:41:13;;;;;;;0.90;0.90;;;13.90;99.90;;;;;;5232755;28;20029;-77
2022/01/03 11:43:53;;;;;;;1.27;1.27;;;13.20;99.90;;;;;;5198062;28;20104;-75
2022/01/03 11:46:23;;;;;;;1.02;1.02;;;13.50;99.90;;;;;;5231322;28;20361;-76
2022/01/03 11:48:57;;;;;;;0.90;0.90;;;13.30;99.90;;;;;;5216582;28;20029;-75
2022/01/03 11:51:30;;;;;;;0.83;0.83;;;12.30;99.90;;;;;;5214317;28;20056;-76
2022/01/03 11:54:09;;;;;;;1.02;1.02;;;12.00;99.90;;;;;;5209444;28;20274;-77
2022/01/03 11:56:48;;;;;;;0.80;0.80;;;13.00;99.90;;;;;;5208964;28;20402;-75
2022/01/03 12:03:36;;;;;;;1.08;1.08;;;13.60;99.90;;;;;;5196050;28;20079;-74
2022/01/03 12:05:15;;;;;;;0.80;0.80;;;13.90;99.90;;;;;;5213212;28;20124;-77
2022/01/03 12:08:01;;;;;;;0.75;0.75;;;14.40;99.90;;;;;;5216629;28;20505;-76
2022/01/03 12:10:48;;;;;;;0.80;0.80;;;13.90;99.90;;;;;;5215922;28;20037;-75
2022/01/03 12:13:22;;;;;;;0.90;0.90;;;13.40;99.90;;;;;;5218717;28;20067;-75
2022/01/03 12:16:04;;;;;;;0.88;0.88;;;13.50;99.90;;;;;;5204377;28;20041;-75
2022/01/03 12:18:35;;;;;;;0.80;0.80;;;13.50;99.90;;;;;;5222311;28;20044;-75
2022/01/03 12:21:06;;;;;;;1.33;1.33;;;13.30;99.90;;;;;;5218715;28;20402;-76
2022/01/03 12:23:41;;;;;;;0.95;0.95;;;13.90;99.90;;;;;;5219686;28;20033;-77
2022/01/03 12:26:23;;;;;;;0.88;0.88;;;14.00;99.90;;;;;;5234865;28;20021;-75
2022/01/03 12:29:03;;;;;;;0.80;0.80;;;14.50;99.90;;;;;;5221842;28;20375;-76
2022/01/03 12:32:08;;;;;;;1.00;1.00;;;14.20;99.90;;;;;;5214021;28;20049;-76
2022/01/03 12:34:42;;;;;;;0.77;0.77;;;14.00;99.90;;;;;;5211285;28;20025;-75
2022/01/03 12:37:22;;;;;;;0.90;0.90;;;13.90;99.90;;;;;;5212608;28;20317;-75
2022/01/03 12:40:07;;;;;;;1.15;1.15;;;14.10;99.90;;;;;;5222465;28;20043;-75
2022/01/03 12:42:53;;;;;;;0.80;0.80;;;14.00;99.90;;;;;;5222400;28;20036;-77
2022/01/03 12:45:29;;;;;;;1.25;1.25;;;14.20;99.90;;;;;;5221367;28;20072;-75
2022/01/03 12:48:14;;;;;;;0.90;0.90;;;14.50;99.90;;;;;;5221722;28;20526;-77
2022/01/03 12:50:57;;;;;;;0.90;0.90;;;14.70;99.90;;;;;;5221692;28;20036;-77
2022/01/03 12:53:28;;;;;;;1.00;1.00;;;14.10;99.90;;;;;;5221696;28;20040;-76
2022/01/03 12:56:10;;;;;;;0.68;0.68;;;13.80;99.90;;;;;;5221191;28;20104;-75
2022/01/03 12:58:51;;;;;;;0.70;0.70;;;13.40;99.90;;;;;;5204115;28;20057;-79
2022/01/03 13:01:27;;;;;;;0.80;0.80;;;13.70;99.90;;;;;;5231658;28;20036;-76
2022/01/03 13:04:18;;;;;;;0.75;0.75;;;13.30;99.90;;;;;;5223151;28;20045;-75
2022/01/03 13:06:59;;;;;;;0.90;0.90;;;13.40;99.90;;;;;;5215440;28;20234;-76
2022/01/03 13:09:37;;;;;;;0.90;0.90;;;13.60;99.90;;;;;;5241856;28;20047;-76
2022/01/03 13:12:11;;;;;;;1.10;1.10;;;13.60;99.90;;;;;;5242731;28;20035;-77
2022/01/03 13:14:44;;;;;;;0.90;0.90;;;13.70;99.90;;;;;;5243384;28;20036;-78
2022/01/03 13:17:20;;;;;;;0.60;0.60;;;13.70;99.90;;;;;;5240104;28;20297;-77
2022/01/03 13:20:05;;;;;;;0.75;0.75;;;13.90;99.90;;;;;;5242405;28;20040;-78
2022/01/03 13:22:38;;;;;;;;;;;13.50;99.90;;;;;;5242592;28;20060;-76
2022/01/03 13:25:14;;;;;;;0.90;0.90;;;13.20;99.90;;;;;;5251018;28;20360;-77
2022/01/03 13:27:47;;;;;;;1.50;1.48;;;13.10;99.90;;;;;;5241386;28;20089;-76
2022/01/03 13:30:18;;;;;;;0.88;0.88;;;13.20;99.90;;;;;;5242067;28;20030;-77
2022/01/03 13:32:59;;;;;;;0.80;0.80;;;12.90;99.90;;;;;;5240995;28;20055;-76
2022/01/03 13:35:35;;;;;;;0.60;0.60;;;13.00;99.90;;;;;;5225270;28;20028;-76
2022/01/03 13:38:16;;;;;;;0.70;0.70;;;12.90;99.90;;;;;;5241689;28;20102;-75
2022/01/03 13:40:48;;;;;;;1.00;1.00;;;12.80;99.90;;;;;;5225016;28;20095;-77
2022/01/03 13:43:29;;;;;;;0.90;0.90;;;12.50;99.90;;;;;;5241163;28;20081;-76
2022/01/03 13:51:38;;;;;;;0.77;0.77;;;12.20;99.90;;;;;;5243670;28;20131;-76
2022/01/03 13:54:08;;;;;;;0.80;0.80;;;12.00;99.90;;;;;;5242208;28;20028;-74
2022/01/03 13:56:50;;;;;;;0.90;0.90;;;12.00;99.90;;;;;;5234861;28;20257;-75
2022/01/03 13:59:24;;;;;;;0.65;0.65;;;11.90;99.90;;;;;;5238560;28;20299;-76
2022/01/03 14:01:55;;;;;;;1.10;1.10;;;11.90;99.90;;;;;;5225155;28;20313;-77